Time;durP1;ratioP1;P1;durP2;ratioP2;P2;SDS_P1;SDS_P2;PMS_P1;PMS_P2;Temp;Humidity;BMP_temperature;BMP_pressure;BME280_temperature;BME280_humidity;BME280_pressure;Samples;Min_cycle;Max_cycle;Signal;HPM_P1;HPM_P2
2022/06/22 00:00:22;;;;;;;5.13;3.08;;;;;;;;;;5063186;28;20197;-68
2022/06/22 00:02:52;;;;;;;3.80;2.75;;;;;;;;;;5063137;28;20449;-68
2022/06/22 00:05:20;;;;;;;3.30;2.83;;;;;;;;;;5062771;28;20224;-68
2022/06/22 00:07:50;;;;;;;2.92;2.65;;;;;;;;;;5062992;28;20203;-68
2022/06/22 00:10:20;;;;;;;3.20;2.90;;;;;;;;;;5062954;28;20207;-68
2022/06/22 00:12:48;;;;;;;3.22;2.78;;;;;;;;;;5062990;28;20196;-68
2022/06/22 00:15:21;;;;;;;4.90;2.80;;;;;;;;;;5062894;28;20204;-68
2022/06/22 00:17:47;;;;;;;2.90;2.70;;;;;;;;;;5062529;28;20231;-68
2022/06/22 00:20:22;;;;;;;3.05;2.70;;;;;;;;;;5062415;28;20222;-68
2022/06/22 00:22:50;;;;;;;5.45;2.60;;;;;;;;;;5062844;28;20196;-68
2022/06/22 00:25:20;;;;;;;4.18;2.95;;;;;;;;;;5062776;28;20200;-68
2022/06/22 00:27:47;;;;;;;2.70;2.50;;;;;;;;;;5062486;28;20222;-68
2022/06/22 00:30:20;;;;;;;3.00;2.80;;;;;;;;;;5062810;28;20206;-68
2022/06/22 00:33:11;;;;;;;2.65;2.33;;;;;;;;;;5062746;28;20203;-68
2022/06/22 00:35:56;;;;;;;3.80;2.67;;;;;;;;;;5062524;28;20566;-68
2022/06/22 00:38:27;;;;;;;2.97;2.67;;;;;;;;;;5062992;28;20196;-68
2022/06/22 00:40:55;;;;;;;3.78;3.40;;;;;;;;;;5062676;28;20185;-68
2022/06/22 00:43:23;;;;;;;3.97;2.63;;;;;;;;;;5062646;28;20503;-68
2022/06/22 00:45:49;;;;;;;3.15;2.80;;;;;;;;;;5062461;28;20200;-68
2022/06/22 00:48:21;;;;;;;3.85;3.10;;;;;;;;;;5062319;28;20205;-68
2022/06/22 00:50:53;;;;;;;6.03;3.53;;;;;;;;;;5062266;28;20200;-68
2022/06/22 00:53:21;;;;;;;3.75;3.40;;;;;;;;;;5062158;28;20196;-68
2022/06/22 00:55:52;;;;;;;4.88;3.03;;;;;;;;;;5062346;28;20217;-68
2022/06/22 00:58:21;;;;;;;3.72;3.38;;;;;;;;;;5062132;28;20449;-68
2022/06/22 01:00:52;;;;;;;2.92;2.80;;;;;;;;;;5062269;28;20196;-68
2022/06/22 01:03:19;;;;;;;3.53;3.10;;;;;;;;;;5062233;28;20197;-68
2022/06/22 01:05:50;;;;;;;5.40;3.20;;;;;;;;;;5061989;28;20224;-68
2022/06/22 01:08:18;;;;;;;3.40;3.03;;;;;;;;;;5061973;28;20196;-68
2022/06/22 01:10:49;;;;;;;2.88;2.67;;;;;;;;;;5062179;28;20515;-68
2022/06/22 01:13:19;;;;;;;3.15;2.95;;;;;;;;;;5061385;28;20200;-68
2022/06/22 01:15:48;;;;;;;3.17;2.97;;;;;;;;;;5062135;28;20196;-68
2022/06/22 01:18:16;;;;;;;4.65;2.70;;;;;;;;;;5061952;28;20205;-68
2022/06/22 01:20:49;;;;;;;3.50;3.10;;;;;;;;;;5062123;28;20687;-68
2022/06/22 01:23:37;;;;;;;3.47;2.72;;;;;;;;;;5061980;28;20219;-68
2022/06/22 01:26:10;;;;;;;3.50;3.17;;;;;;;;;;5062086;28;20199;-68
2022/06/22 01:28:38;;;;;;;3.58;2.90;;;;;;;;;;5062058;28;20204;-68
2022/06/22 01:31:05;;;;;;;4.25;3.03;;;;;;;;;;5061850;28;20505;-68
2022/06/22 01:33:33;;;;;;;3.88;3.58;;;;;;;;;;5065311;28;20200;-68
2022/06/22 01:36:00;;;;;;;3.38;2.80;;;;;;;;;;5065601;28;20220;-68
2022/06/22 01:38:28;;;;;;;5.40;2.92;;;;;;;;;;5065762;28;20196;-68
2022/06/22 01:41:00;;;;;;;7.00;3.60;;;;;;;;;;5065927;28;20212;-68
2022/06/22 01:43:30;;;;;;;3.70;3.30;;;;;;;;;;5065728;28;20208;-68
2022/06/22 01:46:01;;;;;;;4.95;3.40;;;;;;;;;;5065731;28;20365;-68
2022/06/22 01:48:30;;;;;;;3.13;2.90;;;;;;;;;;5065559;28;20196;-68
2022/06/22 01:50:59;;;;;;;5.00;3.15;;;;;;;;;;5065773;28;20197;-68
2022/06/22 01:53:28;;;;;;;6.97;3.35;;;;;;;;;;5065577;28;20196;-68
2022/06/22 01:55:57;;;;;;;4.70;2.80;;;;;;;;;;5065451;28;20197;-68
2022/06/22 01:58:32;;;;;;;3.50;2.95;;;;;;;;;;5065403;28;20197;-68
2022/06/22 02:04:08;;;;;;;6.95;3.35;;;;;;;;;;5064783;28;20206;-68
2022/06/22 02:09:23;;;;;;;3.58;3.38;;;;;;;;;;5065255;28;20196;-68
2022/06/22 02:12:18;;;;;;;3.50;3.20;;;;;;;;;;5065189;28;20211;-68
2022/06/22 02:14:44;;;;;;;4.63;3.38;;;;;;;;;;5064936;28;20224;-68
2022/06/22 02:17:11;;;;;;;5.30;3.25;;;;;;;;;;5064989;28;20216;-68
2022/06/22 02:19:39;;;;;;;3.83;3.28;;;;;;;;;;5065113;28;20197;-68
2022/06/22 02:22:06;;;;;;;3.70;3.40;;;;;;;;;;5065232;28;20197;-68
2022/06/22 02:24:34;;;;;;;3.13;2.90;;;;;;;;;;5064935;28;20197;-68
2022/06/22 02:27:02;;;;;;;3.30;3.10;;;;;;;;;;5064687;28;20420;-68
2022/06/22 02:29:29;;;;;;;4.22;3.13;;;;;;;;;;5065329;28;20197;-68
2022/06/22 02:31:58;;;;;;;4.85;3.60;;;;;;;;;;5064834;28;20197;-68
2022/06/22 02:34:24;;;;;;;6.90;4.28;;;;;;;;;;5064693;28;20197;-68
2022/06/22 02:36:54;;;;;;;4.25;3.78;;;;;;;;;;5064436;28;20221;-68
2022/06/22 02:39:21;;;;;;;5.93;4.07;;;;;;;;;;5064732;28;20196;-68
2022/06/22 02:44:33;;;;;;;4.55;4.20;;;;;;;;;;5064380;28;20550;-68
2022/06/22 02:47:01;;;;;;;4.30;3.67;;;;;;;;;;5064405;28;20193;-68
2022/06/22 02:49:30;;;;;;;4.63;3.75;;;;;;;;;;5064474;28;20197;-68
2022/06/22 02:51:59;;;;;;;4.50;4.10;;;;;;;;;;5064583;28;20228;-68
2022/06/22 02:54:28;;;;;;;5.88;3.80;;;;;;;;;;5064330;28;20197;-68
2022/06/22 02:57:00;;;;;;;4.18;3.80;;;;;;;;;;5064046;28;20224;-68
2022/06/22 02:59:26;;;;;;;5.20;4.07;;;;;;;;;;5064502;28;20197;-68
2022/06/22 03:01:53;;;;;;;4.28;3.88;;;;;;;;;;5064266;28;20208;-68
2022/06/22 03:04:19;;;;;;;6.15;4.13;;;;;;;;;;5064229;28;20197;-68
2022/06/22 03:06:46;;;;;;;4.95;4.35;;;;;;;;;;5063817;28;20244;-68
2022/06/22 03:09:14;;;;;;;4.18;3.85;;;;;;;;;;5064372;28;20505;-68
2022/06/22 03:11:43;;;;;;;4.70;4.25;;;;;;;;;;5064349;28;20204;-68
2022/06/22 03:14:16;;;;;;;4.78;3.97;;;;;;;;;;5064218;28;20204;-68
2022/06/22 03:16:44;;;;;;;6.53;3.90;;;;;;;;;;5063760;28;20239;-68
2022/06/22 03:19:12;;;;;;;5.78;4.30;;;;;;;;;;5063836;28;20205;-68
2022/06/22 03:21:39;;;;;;;4.85;4.28;;;;;;;;;;5064127;28;20197;-68
2022/06/22 03:24:11;;;;;;;6.68;5.05;;;;;;;;;;5064017;28;20197;-68
2022/06/22 03:26:40;;;;;;;6.07;5.22;;;;;;;;;;5064074;28;20511;-68
2022/06/22 03:29:11;;;;;;;5.63;5.03;;;;;;;;;;5063789;28;20205;-68
2022/06/22 03:31:41;;;;;;;7.05;6.35;;;;;;;;;;5063651;28;20216;-68
2022/06/22 03:34:10;;;;;;;5.90;4.72;;;;;;;;;;5063884;28;20204;-68
2022/06/22 03:36:40;;;;;;;7.95;4.88;;;;;;;;;;5063568;28;20231;-68
2022/06/22 03:39:07;;;;;;;9.73;5.07;;;;;;;;;;5063791;28;20204;-68
2022/06/22 03:41:35;;;;;;;7.45;5.90;;;;;;;;;;5063628;28;20197;-68
2022/06/22 03:44:06;;;;;;;6.25;5.07;;;;;;;;;;5063501;28;20203;-68
2022/06/22 03:46:35;;;;;;;6.95;5.47;;;;;;;;;;5063090;28;20201;-68
2022/06/22 03:49:03;;;;;;;6.30;4.85;;;;;;;;;;5063323;28;20209;-68
2022/06/22 03:51:32;;;;;;;5.60;4.43;;;;;;;;;;5063300;28;20201;-68
2022/06/22 03:54:02;;;;;;;4.95;4.55;;;;;;;;;;5063288;28;20204;-68
2022/06/22 03:56:30;;;;;;;5.25;4.57;;;;;;;;;;5062427;28;20411;-68
2022/06/22 03:58:57;;;;;;;5.47;4.78;;;;;;;;;;5063106;28;20205;-68
2022/06/22 04:01:25;;;;;;;6.40;5.07;;;;;;;;;;5063349;28;20373;-68
2022/06/22 04:03:52;;;;;;;6.00;5.25;;;;;;;;;;5063009;28;20232;-68
2022/06/22 04:06:22;;;;;;;8.13;5.30;;;;;;;;;;5062567;28;20312;-68
2022/06/22 04:08:50;;;;;;;5.97;5.38;;;;;;;;;;5063145;28;20505;-68
2022/06/22 04:11:20;;;;;;;6.55;4.75;;;;;;;;;;5063349;28;20224;-68
2022/06/22 04:13:48;;;;;;;6.30;5.43;;;;;;;;;;5062925;28;20300;-68
2022/06/22 04:16:15;;;;;;;10.05;6.95;;;;;;;;;;5062641;28;20404;-68
2022/06/22 04:18:45;;;;;;;4.90;4.50;;;;;;;;;;5062910;28;20217;-68
2022/06/22 04:21:13;;;;;;;7.50;5.40;;;;;;;;;;5062718;28;20193;-68
2022/06/22 04:23:41;;;;;;;6.82;5.00;;;;;;;;;;5062677;28;20204;-69
2022/06/22 04:26:10;;;;;;;6.45;5.18;;;;;;;;;;5062505;28;20211;-68
2022/06/22 04:28:39;;;;;;;5.38;4.85;;;;;;;;;;5062906;28;20500;-68
2022/06/22 04:31:05;;;;;;;5.10;4.70;;;;;;;;;;5062665;28;20204;-68
2022/06/22 04:33:34;;;;;;;7.80;5.18;;;;;;;;;;5062715;28;20197;-68
2022/06/22 04:36:04;;;;;;;8.82;5.95;;;;;;;;;;5062467;28;20196;-68
2022/06/22 04:38:33;;;;;;;6.60;4.88;;;;;;;;;;5062779;28;20443;-68
2022/06/22 04:41:02;;;;;;;12.70;5.75;;;;;;;;;;5062593;28;20219;-68
2022/06/22 04:43:29;;;;;;;8.63;5.45;;;;;;;;;;5062610;28;20396;-68
2022/06/22 04:45:56;;;;;;;8.45;5.85;;;;;;;;;;5062838;28;20203;-68
2022/06/22 04:48:24;;;;;;;8.35;5.45;;;;;;;;;;5062359;28;20203;-68
2022/06/22 04:50:52;;;;;;;6.50;5.35;;;;;;;;;;5062414;28;20204;-68
2022/06/22 04:53:22;;;;;;;6.15;5.53;;;;;;;;;;5062325;28;20201;-68
2022/06/22 04:55:49;;;;;;;8.27;5.63;;;;;;;;;;5062525;28;20201;-68
2022/06/22 04:58:31;;;;;;;10.32;6.22;;;;;;;;;;5062123;28;20244;-68
2022/06/22 05:00:58;;;;;;;9.95;6.07;;;;;;;;;;5062427;28;20197;-68
2022/06/22 05:03:24;;;;;;;8.52;6.30;;;;;;;;;;5062155;28;20197;-68
2022/06/22 05:05:52;;;;;;;6.88;5.25;;;;;;;;;;5061862;28;20260;-68
2022/06/22 05:08:20;;;;;;;6.97;5.65;;;;;;;;;;5062227;28;20492;-68
2022/06/22 05:10:50;;;;;;;9.45;6.72;;;;;;;;;;5062171;28;20201;-68
2022/06/22 05:13:18;;;;;;;9.00;6.32;;;;;;;;;;5061920;28;20210;-68
2022/06/22 05:15:46;;;;;;;9.45;6.80;;;;;;;;;;5061490;28;20500;-68
2022/06/22 05:18:14;;;;;;;9.43;6.15;;;;;;;;;;5061339;28;20225;-68
2022/06/22 05:20:44;;;;;;;9.88;6.30;;;;;;;;;;5061335;28;20211;-68
2022/06/22 05:23:10;;;;;;;8.73;6.22;;;;;;;;;;5061559;28;20219;-68
2022/06/22 05:25:37;;;;;;;6.68;6.00;;;;;;;;;;5061526;28;20197;-68
2022/06/22 05:28:07;;;;;;;7.07;5.70;;;;;;;;;;5059321;28;20201;-59
2022/06/22 05:30:35;;;;;;;8.02;6.43;;;;;;;;;;5047882;28;20469;-59
2022/06/22 05:33:04;;;;;;;12.10;6.72;;;;;;;;;;5053959;28;20439;-60
2022/06/22 05:35:33;;;;;;;9.35;5.53;;;;;;;;;;5053884;28;20204;-59
2022/06/22 05:38:02;;;;;;;9.68;6.50;;;;;;;;;;5050417;28;20233;-58
2022/06/22 05:40:30;;;;;;;8.63;5.90;;;;;;;;;;5035029;28;20443;-59
2022/06/22 05:42:57;;;;;;;6.88;6.18;;;;;;;;;;5044450;28;20216;-61
2022/06/22 05:45:26;;;;;;;9.13;6.63;;;;;;;;;;5053864;28;20233;-61
2022/06/22 05:47:54;;;;;;;11.30;8.13;;;;;;;;;;5048550;28;20198;-62
2022/06/22 05:50:27;;;;;;;8.52;7.63;;;;;;;;;;5053358;28;20300;-60
2022/06/22 05:52:58;;;;;;;9.98;7.72;;;;;;;;;;5053745;28;20209;-60
2022/06/22 05:55:28;;;;;;;6.90;6.05;;;;;;;;;;5052740;28;20385;-60
2022/06/22 05:57:59;;;;;;;8.10;6.97;;;;;;;;;;5052955;28;20512;-60
2022/06/22 06:00:28;;;;;;;9.27;6.88;;;;;;;;;;5053121;28;20510;-60
2022/06/22 06:03:00;;;;;;;9.02;6.57;;;;;;;;;;5039252;28;20562;-60
2022/06/22 06:05:28;;;;;;;9.35;6.57;;;;;;;;;;5033917;28;20264;-60
2022/06/22 06:07:55;;;;;;;7.25;6.57;;;;;;;;;;5040495;28;20238;-60
2022/06/22 06:10:23;;;;;;;12.25;9.27;;;;;;;;;;5053566;28;20212;-60
2022/06/22 06:12:54;;;;;;;7.97;6.78;;;;;;;;;;5052839;28;20212;-60
2022/06/22 06:15:21;;;;;;;10.68;7.10;;;;;;;;;;5053102;28;20213;-60
2022/06/22 06:17:50;;;;;;;12.85;7.88;;;;;;;;;;5053440;28;20482;-59
2022/06/22 06:20:18;;;;;;;10.15;7.75;;;;;;;;;;5054495;28;20212;-60
2022/06/22 06:22:45;;;;;;;12.05;7.82;;;;;;;;;;5036831;28;20213;-60
2022/06/22 06:28:02;;;;;;;8.35;7.43;;;;;;;;;;5036788;28;20208;-60
2022/06/22 06:30:30;;;;;;;11.93;7.72;;;;;;;;;;5035799;28;20388;-60
2022/06/22 06:33:02;;;;;;;7.25;6.65;;;;;;;;;;5036052;28;20383;-60
2022/06/22 06:35:31;;;;;;;10.55;7.35;;;;;;;;;;5036855;28;20239;-60
2022/06/22 06:38:01;;;;;;;7.75;6.97;;;;;;;;;;5035787;28;20257;-60
2022/06/22 06:40:32;;;;;;;6.63;5.93;;;;;;;;;;5055777;28;20386;-60
2022/06/22 06:43:02;;;;;;;12.00;6.88;;;;;;;;;;5055364;28;20459;-60
2022/06/22 06:45:28;;;;;;;11.27;6.97;;;;;;;;;;5055944;28;20583;-60
2022/06/22 06:47:58;;;;;;;8.50;7.47;;;;;;;;;;5045108;28;20209;-60
2022/06/22 06:50:30;;;;;;;9.38;7.50;;;;;;;;;;5035409;28;20221;-60
2022/06/22 06:53:00;;;;;;;12.23;7.72;;;;;;;;;;5035712;28;20220;-60
2022/06/22 06:55:31;;;;;;;9.70;8.13;;;;;;;;;;5036005;28;20220;-59
2022/06/22 06:58:06;;;;;;;14.50;8.00;;;;;;;;;;5043733;28;20232;-59
2022/06/22 07:00:33;;;;;;;8.90;7.85;;;;;;;;;;5052066;28;20212;-60
2022/06/22 07:03:00;;;;;;;8.85;7.53;;;;;;;;;;5056077;28;20219;-60
2022/06/22 07:05:28;;;;;;;8.98;8.07;;;;;;;;;;5055339;28;20236;-60
2022/06/22 07:07:57;;;;;;;9.65;8.00;;;;;;;;;;5055582;28;20350;-60
2022/06/22 07:10:26;;;;;;;9.07;8.18;;;;;;;;;;5055437;28;20220;-60
2022/06/22 07:12:55;;;;;;;12.07;8.60;;;;;;;;;;5055267;28;20521;-60
2022/06/22 07:15:22;;;;;;;15.48;8.52;;;;;;;;;;5055190;28;20219;-60
2022/06/22 07:17:51;;;;;;;10.38;7.60;;;;;;;;;;5055980;28;20228;-60
2022/06/22 07:20:19;;;;;;;9.98;7.28;;;;;;;;;;5054707;28;20220;-60
2022/06/22 07:22:49;;;;;;;10.10;7.65;;;;;;;;;;5042145;28;20264;-60
2022/06/22 07:25:20;;;;;;;9.13;7.65;;;;;;;;;;5037400;28;20209;-60
2022/06/22 07:27:49;;;;;;;9.80;8.82;;;;;;;;;;5035734;28;20287;-61
2022/06/22 07:30:18;;;;;;;10.20;8.40;;;;;;;;;;5035481;28;20213;-60
2022/06/22 07:32:47;;;;;;;9.68;7.78;;;;;;;;;;5046297;28;20241;-61
2022/06/22 07:35:16;;;;;;;10.50;7.57;;;;;;;;;;5052137;28;20233;-60
2022/06/22 07:37:46;;;;;;;10.02;8.02;;;;;;;;;;5045913;28;20235;-60
2022/06/22 07:40:15;;;;;;;12.65;8.18;;;;;;;;;;5038288;28;20288;-59
2022/06/22 07:42:41;;;;;;;8.63;7.53;;;;;;;;;;5047691;28;20241;-61
2022/06/22 07:45:13;;;;;;;12.90;8.98;;;;;;;;;;5047600;28;20218;-60
2022/06/22 07:47:41;;;;;;;10.52;8.48;;;;;;;;;;5051717;28;20216;-61
2022/06/22 07:50:12;;;;;;;12.13;8.70;;;;;;;;;;5051836;28;20563;-61
2022/06/22 07:52:40;;;;;;;13.77;8.65;;;;;;;;;;5054986;28;20416;-61
2022/06/22 07:55:15;;;;;;;12.43;8.77;;;;;;;;;;5039526;28;20217;-62
2022/06/22 07:57:47;;;;;;;10.32;8.48;;;;;;;;;;5051169;28;20212;-61
2022/06/22 08:00:15;;;;;;;9.48;8.38;;;;;;;;;;5041828;28;20332;-60
2022/06/22 08:02:46;;;;;;;12.52;9.02;;;;;;;;;;5046549;28;20520;-61
2022/06/22 08:05:15;;;;;;;10.18;8.48;;;;;;;;;;5054285;28;20624;-61
2022/06/22 08:07:45;;;;;;;12.35;8.85;;;;;;;;;;5049752;28;20236;-61
2022/06/22 08:10:15;;;;;;;15.80;8.63;;;;;;;;;;5034608;28;20540;-61
2022/06/22 08:12:45;;;;;;;10.52;8.70;;;;;;;;;;5034918;28;20235;-61
2022/06/22 08:15:15;;;;;;;16.45;10.15;;;;;;;;;;5041011;28;20213;-60
2022/06/22 08:17:43;;;;;;;10.63;8.05;;;;;;;;;;5038753;28;20563;-60
2022/06/22 08:20:10;;;;;;;9.30;8.00;;;;;;;;;;5054822;28;20217;-60
2022/06/22 08:22:37;;;;;;;10.45;8.35;;;;;;;;;;5054793;28;20512;-60
2022/06/22 08:25:05;;;;;;;10.68;8.82;;;;;;;;;;5054855;28;20410;-60
2022/06/22 08:27:31;;;;;;;16.25;8.98;;;;;;;;;;5054169;28;20213;-61
2022/06/22 08:29:59;;;;;;;11.20;8.73;;;;;;;;;;5035356;28;20277;-61
2022/06/22 08:32:29;;;;;;;11.48;8.95;;;;;;;;;;5034163;28;20313;-58
2022/06/22 08:34:56;;;;;;;10.55;8.80;;;;;;;;;;5034070;28;20220;-60
2022/06/22 08:37:27;;;;;;;12.02;10.27;;;;;;;;;;5036099;28;20213;-61
2022/06/22 08:39:55;;;;;;;15.38;8.82;;;;;;;;;;5045472;28;20452;-60
2022/06/22 08:42:27;;;;;;;12.80;8.98;;;;;;;;;;5053673;28;20220;-61
2022/06/22 08:45:03;;;;;;;9.55;8.27;;;;;;;;;;5054471;28;20407;-60
2022/06/22 08:47:42;;;;;;;15.52;9.15;;;;;;;;;;5036786;28;20215;-60
2022/06/22 08:50:17;;;;;;;11.40;8.32;;;;;;;;;;5053105;28;20215;-60
2022/06/22 08:52:51;;;;;;;13.45;8.75;;;;;;;;;;5052750;28;20219;-59
2022/06/22 08:55:24;;;;;;;8.90;7.95;;;;;;;;;;5047681;28;20219;-61
2022/06/22 08:57:59;;;;;;;11.13;8.13;;;;;;;;;;5034992;28;20220;-62
2022/06/22 09:00:28;;;;;;;14.07;8.55;;;;;;;;;;5037352;28;20227;-60
2022/06/22 09:03:12;;;;;;;8.70;7.85;;;;;;;;;;5033871;28;20213;-60
2022/06/22 09:05:44;;;;;;;10.45;7.30;;;;;;;;;;5050601;28;20308;-60
2022/06/22 09:08:22;;;;;;;10.80;7.15;;;;;;;;;;5050014;28;20539;-60
2022/06/22 09:10:54;;;;;;;8.60;7.57;;;;;;;;;;5047943;28;20220;-60
2022/06/22 09:13:33;;;;;;;12.25;7.70;;;;;;;;;;5048254;28;20220;-62
2022/06/22 09:16:03;;;;;;;9.38;8.05;;;;;;;;;;5053670;28;20212;-60
2022/06/22 09:18:45;;;;;;;8.65;7.85;;;;;;;;;;5053234;28;20227;-61
2022/06/22 09:21:23;;;;;;;15.48;8.57;;;;;;;;;;5043661;28;20232;-61
2022/06/22 09:23:58;;;;;;;10.48;8.70;;;;;;;;;;5036473;28;20211;-61
2022/06/22 09:26:29;;;;;;;13.10;8.55;;;;;;;;;;5033661;28;20485;-61
2022/06/22 09:28:58;;;;;;;9.32;8.25;;;;;;;;;;5038630;28;20208;-61
2022/06/22 09:31:31;;;;;;;11.15;8.68;;;;;;;;;;5033272;28;20213;-61
2022/06/22 09:34:04;;;;;;;12.40;8.93;;;;;;;;;;5033739;28;20571;-60
2022/06/22 09:36:40;;;;;;;13.52;9.23;;;;;;;;;;5052693;28;20507;-60
2022/06/22 09:39:18;;;;;;;12.75;9.60;;;;;;;;;;5053624;28;20220;-60
2022/06/22 09:41:53;;;;;;;12.63;9.02;;;;;;;;;;5053933;28;20212;-60
2022/06/22 09:44:34;;;;;;;14.18;8.68;;;;;;;;;;5042805;28;20516;-61
2022/06/22 09:47:12;;;;;;;12.48;8.50;;;;;;;;;;5030985;28;20255;-61
2022/06/22 09:49:56;;;;;;;15.07;8.57;;;;;;;;;;5052027;28;20216;-61
2022/06/22 09:52:31;;;;;;;9.27;7.63;;;;;;;;;;5042782;28;20415;-61
2022/06/22 09:58:04;;;;;;;13.80;8.38;;;;;;;;;;5013263;28;20364;-62
2022/06/22 10:00:36;;;;;;;9.35;8.13;;;;;;;;;;5056341;28;20228;-60
2022/06/22 10:03:11;;;;;;;12.25;9.20;;;;;;;;;;5052251;28;20209;-60
2022/06/22 10:05:55;;;;;;;8.90;8.10;;;;;;;;;;5057595;28;20408;-61
2022/06/22 10:08:26;;;;;;;10.43;8.02;;;;;;;;;;5044029;28;20205;-60
2022/06/22 10:10:59;;;;;;;10.30;7.93;;;;;;;;;;5041876;28;20220;-59
2022/06/22 10:13:32;;;;;;;11.35;7.68;;;;;;;;;;5036158;28;20547;-60
2022/06/22 10:16:05;;;;;;;13.65;9.23;;;;;;;;;;5040725;28;20478;-60
2022/06/22 10:18:38;;;;;;;8.90;8.10;;;;;;;;;;5036553;28;20608;-61
2022/06/22 10:21:08;;;;;;;13.63;9.27;;;;;;;;;;5049477;28;20209;-60
2022/06/22 10:23:48;;;;;;;11.38;8.82;;;;;;;;;;5044977;28;20219;-61
2022/06/22 10:26:23;;;;;;;13.77;8.50;;;;;;;;;;5048481;28;20471;-60
2022/06/22 10:29:08;;;;;;;14.55;8.70;;;;;;;;;;5044341;28;20215;-60
2022/06/22 10:31:39;;;;;;;13.45;9.65;;;;;;;;;;5052856;28;20216;-61
2022/06/22 10:34:17;;;;;;;13.45;10.00;;;;;;;;;;5056711;28;20212;-60
2022/06/22 10:36:58;;;;;;;15.38;9.43;;;;;;;;;;5038752;28;20216;-61
2022/06/22 10:39:34;;;;;;;12.93;9.63;;;;;;;;;;5035749;28;20441;-61
2022/06/22 10:45:09;;;;;;;13.07;8.73;;;;;;;;;;5052919;28;20233;-61
2022/06/22 10:47:51;;;;;;;13.10;9.93;;;;;;;;;;5052883;28;20219;-60
2022/06/22 10:50:32;;;;;;;9.55;8.43;;;;;;;;;;5048760;28;20220;-60
2022/06/22 10:53:09;;;;;;;13.10;9.30;;;;;;;;;;5044935;28;20217;-60
2022/06/22 10:55:51;;;;;;;10.07;8.68;;;;;;;;;;5042616;28;20220;-61
2022/06/22 10:58:29;;;;;;;9.88;8.98;;;;;;;;;;5040386;28;20248;-61
2022/06/22 11:01:05;;;;;;;11.27;9.00;;;;;;;;;;5036106;28;20204;-60
2022/06/22 11:03:57;;;;;;;12.68;10.43;;;;;;;;;;5035969;28;20723;-61
2022/06/22 11:06:29;;;;;;;14.65;9.95;;;;;;;;;;5043819;28;20235;-61
2022/06/22 11:09:03;;;;;;;13.70;10.07;;;;;;;;;;5036321;28;20205;-61
2022/06/22 11:11:41;;;;;;;16.38;10.10;;;;;;;;;;5050794;28;20216;-61
2022/06/22 11:14:31;;;;;;;10.43;9.25;;;;;;;;;;5055718;28;20233;-61
2022/06/22 11:17:06;;;;;;;10.57;9.50;;;;;;;;;;5055406;28;20212;-60
2022/06/22 11:19:50;;;;;;;14.65;9.65;;;;;;;;;;5055493;28;20232;-60
2022/06/22 11:22:20;;;;;;;16.05;10.57;;;;;;;;;;5038483;28;20236;-61
2022/06/22 11:24:57;;;;;;;16.27;10.10;;;;;;;;;;5038973;28;20276;-61
2022/06/22 11:33:44;;;;;;;15.73;9.85;;;;;;;;;;5055504;28;20215;-61
2022/06/22 11:36:17;;;;;;;12.00;9.65;;;;;;;;;;5054121;28;20208;-60
2022/06/22 11:38:50;;;;;;;9.98;9.18;;;;;;;;;;5044048;28;20548;-61
2022/06/22 11:41:26;;;;;;;10.85;9.50;;;;;;;;;;5035798;28;20213;-60
2022/06/22 11:44:13;;;;;;;11.45;10.20;;;;;;;;;;5039382;28;20299;-60
2022/06/22 11:46:41;;;;;;;11.68;9.50;;;;;;;;;;5047205;28;20480;-62
2022/06/22 11:49:23;;;;;;;15.13;10.23;;;;;;;;;;5055519;28;20318;-60
2022/06/22 11:51:59;;;;;;;11.88;9.00;;;;;;;;;;5053410;28;20219;-60
2022/06/22 11:54:30;;;;;;;13.05;9.95;;;;;;;;;;5055051;28;20212;-62
2022/06/22 11:57:06;;;;;;;12.75;9.73;;;;;;;;;;5054974;28;20385;-62
2022/06/22 11:59:52;;;;;;;10.65;8.90;;;;;;;;;;5054271;28;20227;-60
2022/06/22 12:02:35;;;;;;;14.32;10.07;;;;;;;;;;5054830;28;20234;-60
2022/06/22 12:05:23;;;;;;;11.75;8.98;;;;;;;;;;5054294;28;20247;-60
2022/06/22 12:08:07;;;;;;;14.77;9.70;;;;;;;;;;5050379;28;20213;-61
2022/06/22 12:10:41;;;;;;;12.45;10.02;;;;;;;;;;5042773;28;20277;-62
2022/06/22 12:13:19;;;;;;;15.50;13.80;;;;;;;;;;5035753;28;20249;-61
2022/06/22 12:15:51;;;;;;;13.23;10.02;;;;;;;;;;5050500;28;20223;-61
2022/06/22 12:18:25;;;;;;;10.98;9.88;;;;;;;;;;5051875;28;20213;-62
2022/06/22 12:20:57;;;;;;;12.48;10.18;;;;;;;;;;5050725;28;20571;-62
2022/06/22 12:23:33;;;;;;;13.90;9.90;;;;;;;;;;5053045;28;20278;-61
2022/06/22 12:26:04;;;;;;;13.90;9.00;;;;;;;;;;5035343;28;20251;-60
2022/06/22 12:28:39;;;;;;;12.18;10.27;;;;;;;;;;5034825;28;20645;-60
2022/06/22 12:31:09;;;;;;;11.32;9.38;;;;;;;;;;5037870;28;20208;-60
2022/06/22 12:33:39;;;;;;;12.55;10.32;;;;;;;;;;5050757;28;20218;-60
2022/06/22 12:36:08;;;;;;;9.68;6.90;;;;;;;;;;5055499;28;20204;-60
2022/06/22 12:38:36;;;;;;;7.05;5.07;;;;;;;;;;5036177;28;20214;-60
2022/06/22 12:41:07;;;;;;;10.93;4.43;;;;;;;;;;5042504;28;20232;-60
2022/06/22 12:43:42;;;;;;;9.73;4.45;;;;;;;;;;5055096;28;20513;-60
2022/06/22 12:46:14;;;;;;;12.32;4.45;;;;;;;;;;5042459;28;20218;-60
2022/06/22 12:48:58;;;;;;;8.55;4.57;;;;;;;;;;5050906;28;20216;-60
2022/06/22 12:51:28;;;;;;;6.40;4.70;;;;;;;;;;5046386;28;20220;-63
2022/06/22 12:53:56;;;;;;;12.15;5.25;;;;;;;;;;5034447;28;20217;-62
2022/06/22 12:56:25;;;;;;;12.23;5.28;;;;;;;;;;5034066;28;20248;-62
2022/06/22 12:58:54;;;;;;;12.18;5.05;;;;;;;;;;5033619;28;20297;-62
2022/06/22 13:01:21;;;;;;;10.25;5.10;;;;;;;;;;5042578;28;20228;-59
2022/06/22 13:03:49;;;;;;;12.82;4.93;;;;;;;;;;5054313;28;20204;-61
2022/06/22 13:06:16;;;;;;;8.60;5.25;;;;;;;;;;5053313;28;20560;-61
2022/06/22 13:08:44;;;;;;;9.57;4.75;;;;;;;;;;5045298;28;20213;-61
2022/06/22 13:11:14;;;;;;;12.23;4.47;;;;;;;;;;5041059;28;20472;-61
2022/06/22 13:13:46;;;;;;;10.95;4.80;;;;;;;;;;5054233;28;20216;-60
2022/06/22 13:16:14;;;;;;;15.15;4.65;;;;;;;;;;5053996;28;20212;-61
2022/06/22 13:18:44;;;;;;;13.85;4.63;;;;;;;;;;5053768;28;20219;-60
2022/06/22 13:21:13;;;;;;;11.23;4.90;;;;;;;;;;5052842;28;20555;-60
2022/06/22 13:23:47;;;;;;;11.60;5.07;;;;;;;;;;5054048;28;20527;-61
2022/06/22 13:26:19;;;;;;;12.00;4.93;;;;;;;;;;5050511;28;20322;-62
2022/06/22 13:28:48;;;;;;;10.30;4.93;;;;;;;;;;5056819;28;20219;-60
2022/06/22 13:31:16;;;;;;;16.83;4.97;;;;;;;;;;5041753;28;20216;-60
2022/06/22 13:33:45;;;;;;;8.82;4.35;;;;;;;;;;5050335;28;20212;-60
2022/06/22 13:36:15;;;;;;;11.70;4.78;;;;;;;;;;5056918;28;20219;-60
2022/06/22 13:38:51;;;;;;;14.27;4.65;;;;;;;;;;5058060;28;20212;-60
2022/06/22 13:41:27;;;;;;;15.10;3.78;;;;;;;;;;5057298;28;20250;-60
2022/06/22 13:44:00;;;;;;;11.90;4.10;;;;;;;;;;5053007;28;20218;-60
2022/06/22 13:46:33;;;;;;;15.10;3.90;;;;;;;;;;5057606;28;20219;-60
2022/06/22 13:49:01;;;;;;;11.68;4.60;;;;;;;;;;5056877;28;20220;-60
2022/06/22 13:51:40;;;;;;;13.45;4.32;;;;;;;;;;5056856;28;20223;-60
2022/06/22 13:54:31;;;;;;;16.35;4.35;;;;;;;;;;5057596;28;20410;-60
2022/06/22 13:57:03;;;;;;;12.05;4.40;;;;;;;;;;5057477;28;20485;-60
2022/06/22 13:59:33;;;;;;;14.45;4.53;;;;;;;;;;5057009;28;20407;-60
2022/06/22 14:02:03;;;;;;;14.57;4.75;;;;;;;;;;5044771;28;20201;-60
2022/06/22 14:04:31;;;;;;;13.30;4.40;;;;;;;;;;5057126;28;20446;-60
2022/06/22 14:07:01;;;;;;;12.10;4.15;;;;;;;;;;5052989;28;20221;-60
2022/06/22 14:09:30;;;;;;;13.32;3.83;;;;;;;;;;5045666;28;20450;-60
2022/06/22 14:11:59;;;;;;;12.02;3.80;;;;;;;;;;5039381;28;20224;-60
2022/06/22 14:14:29;;;;;;;14.35;4.32;;;;;;;;;;5046094;28;20527;-60
2022/06/22 14:16:57;;;;;;;12.10;3.92;;;;;;;;;;5051434;28;20215;-60
2022/06/22 14:19:26;;;;;;;15.45;4.43;;;;;;;;;;5052011;28;20220;-60
2022/06/22 14:21:55;;;;;;;12.13;4.30;;;;;;;;;;5056506;28;20207;-60
2022/06/22 14:24:23;;;;;;;12.68;4.50;;;;;;;;;;5050379;28;20209;-60
2022/06/22 14:26:59;;;;;;;19.08;4.60;;;;;;;;;;5037469;28;20217;-60
2022/06/22 14:29:33;;;;;;;17.27;4.55;;;;;;;;;;5041419;28;20212;-59
2022/06/22 14:32:11;;;;;;;14.88;5.00;;;;;;;;;;5054732;28;20442;-60
2022/06/22 14:34:45;;;;;;;18.60;4.80;;;;;;;;;;5053836;28;20701;-60
2022/06/22 14:37:13;;;;;;;12.07;4.40;;;;;;;;;;5057499;28;20515;-60
2022/06/22 14:39:43;;;;;;;15.45;4.10;;;;;;;;;;5043148;28;20205;-60
2022/06/22 14:42:15;;;;;;;20.63;5.18;;;;;;;;;;5054083;28;20308;-60
2022/06/22 14:44:45;;;;;;;15.75;4.88;;;;;;;;;;5054149;28;20227;-60
2022/06/22 14:47:20;;;;;;;13.75;4.07;;;;;;;;;;5056676;28;20243;-60
2022/06/22 14:49:51;;;;;;;17.20;5.03;;;;;;;;;;5055459;28;20373;-60
2022/06/22 14:52:21;;;;;;;6.95;3.95;;;;;;;;;;5055823;28;20219;-60
2022/06/22 14:54:52;;;;;;;12.38;4.90;;;;;;;;;;5041539;28;20397;-60
2022/06/22 14:57:20;;;;;;;12.73;4.03;;;;;;;;;;5055744;28;20215;-60
2022/06/22 15:00:02;;;;;;;12.85;3.88;;;;;;;;;;5055581;28;20220;-60
2022/06/22 15:02:31;;;;;;;13.70;4.38;;;;;;;;;;5048278;28;20255;-60
2022/06/22 15:05:01;;;;;;;12.80;4.07;;;;;;;;;;5053489;28;20224;-60
2022/06/22 15:07:31;;;;;;;14.00;3.95;;;;;;;;;;5035799;28;20213;-60
2022/06/22 15:09:59;;;;;;;15.30;3.50;;;;;;;;;;5042080;28;20219;-60
2022/06/22 15:15:20;;;;;;;13.00;4.38;;;;;;;;;;5055870;28;20253;-60
2022/06/22 15:17:50;;;;;;;15.70;4.43;;;;;;;;;;5055475;28;20219;-60
2022/06/22 15:20:19;;;;;;;16.23;4.43;;;;;;;;;;5054898;28;20232;-60
2022/06/22 15:22:48;;;;;;;13.27;4.10;;;;;;;;;;5055715;28;20442;-60
2022/06/22 15:25:19;;;;;;;10.77;4.22;;;;;;;;;;5043143;28;20217;-61